createdAt,value
2023-04-28T00:00:18.341Z,459.00
2023-04-28T00:01:13.523Z,461.00
2023-04-28T00:02:08.800Z,463.00
2023-04-28T00:03:04.011Z,465.00
2023-04-28T00:03:59.133Z,464.00
2023-04-28T00:04:54.365Z,466.00
2023-04-28T00:05:49.220Z,465.00
2023-04-28T00:06:44.398Z,462.00
2023-04-28T00:07:39.523Z,466.00
2023-04-28T00:08:34.706Z,468.00
2023-04-28T00:09:30.014Z,471.00
2023-04-28T00:10:25.053Z,466.00
2023-04-28T00:11:20.188Z,463.00
2023-04-28T00:12:15.448Z,471.00
2023-04-28T00:13:10.502Z,466.00
2023-04-28T00:14:05.646Z,468.00
2023-04-28T00:15:01.005Z,475.00
2023-04-28T00:15:56.028Z,476.00
2023-04-28T00:16:51.261Z,471.00
2023-04-28T00:17:46.486Z,474.00
2023-04-28T00:18:41.496Z,472.00
2023-04-28T00:19:36.789Z,474.00
2023-04-28T00:20:31.839Z,472.00
2023-04-28T00:21:26.977Z,472.00
2023-04-28T00:22:22.278Z,474.00
2023-04-28T00:23:17.318Z,475.00
2023-04-28T00:24:12.493Z,473.00
2023-04-28T00:25:07.678Z,476.00
2023-04-28T00:26:02.855Z,477.00
2023-04-28T00:26:57.993Z,477.00
2023-04-28T00:27:53.199Z,481.00
2023-04-28T00:28:48.312Z,481.00
2023-04-28T00:29:43.534Z,479.00
2023-04-28T00:30:38.557Z,474.00
2023-04-28T00:31:33.718Z,481.00
2023-04-28T00:32:29.005Z,481.00
2023-04-28T00:33:24.043Z,482.00
2023-04-28T00:34:19.182Z,482.00
2023-04-28T00:35:14.396Z,477.00
2023-04-28T00:36:09.532Z,473.00
2023-04-28T00:37:04.766Z,481.00
2023-04-28T00:37:59.965Z,480.00
2023-04-28T00:38:55.120Z,477.00
2023-04-28T00:39:50.260Z,478.00
2023-04-28T00:40:45.626Z,476.00
2023-04-28T00:41:40.473Z,482.00
2023-04-28T00:42:35.787Z,478.00
2023-04-28T00:43:30.797Z,478.00
2023-04-28T00:44:25.906Z,480.00
2023-04-28T00:45:21.200Z,478.00
2023-04-28T00:46:16.225Z,479.00
2023-04-28T00:47:11.226Z,478.00
2023-04-28T00:48:06.392Z,477.00
2023-04-28T00:49:01.479Z,481.00
2023-04-28T00:49:56.749Z,474.00
2023-04-28T00:50:51.705Z,481.00
2023-04-28T00:51:46.864Z,475.00
2023-04-28T00:52:42.053Z,478.00
2023-04-28T00:53:37.185Z,472.00
2023-04-28T00:54:32.250Z,472.00
2023-04-28T00:55:27.582Z,475.00
2023-04-28T00:56:22.427Z,475.00
2023-04-28T00:57:17.583Z,477.00
2023-04-28T00:58:12.728Z,478.00
2023-04-28T00:59:08.049Z,481.00
2023-04-28T01:00:03.053Z,480.00
2023-04-28T01:00:58.285Z,481.00
2023-04-28T01:01:53.444Z,477.00
2023-04-28T01:02:48.832Z,478.00
2023-04-28T01:03:43.883Z,485.00
2023-04-28T01:04:39.054Z,485.00
2023-04-28T01:05:34.153Z,484.00
2023-04-28T01:06:29.352Z,488.00
2023-04-28T01:07:24.461Z,485.00
2023-04-28T01:08:19.637Z,492.00
2023-04-28T01:09:14.777Z,491.00
2023-04-28T01:10:10.134Z,490.00
2023-04-28T01:11:05.030Z,491.00
2023-04-28T01:12:00.221Z,494.00
2023-04-28T01:12:55.417Z,490.00
2023-04-28T01:13:50.609Z,489.00
2023-04-28T01:14:45.567Z,487.00
2023-04-28T01:15:40.906Z,496.00
2023-04-28T01:16:35.732Z,494.00
2023-04-28T01:17:30.836Z,492.00
2023-04-28T01:18:25.914Z,484.00
2023-04-28T01:19:21.183Z,484.00
2023-04-28T01:20:16.505Z,483.00
2023-04-28T01:21:11.574Z,481.00
2023-04-28T01:22:06.708Z,481.00
2023-04-28T01:23:02.022Z,483.00
2023-04-28T01:23:57.025Z,485.00
2023-04-28T01:24:52.192Z,483.00
2023-04-28T01:25:47.582Z,482.00
2023-04-28T01:26:42.549Z,485.00
2023-04-28T01:27:37.662Z,488.00
2023-04-28T01:28:32.817Z,488.00
2023-04-28T01:29:27.933Z,493.00
2023-04-28T01:30:23.062Z,493.00
2023-04-28T01:31:18.291Z,490.00
2023-04-28T01:32:13.247Z,495.00
2023-04-28T01:33:08.485Z,492.00
2023-04-28T01:34:03.538Z,492.00
2023-04-28T01:34:58.607Z,491.00
2023-04-28T01:35:53.897Z,493.00
2023-04-28T01:36:48.847Z,499.00
2023-04-28T01:37:43.930Z,494.00
2023-04-28T01:38:39.040Z,493.00
2023-04-28T01:39:34.273Z,495.00
2023-04-28T01:40:29.375Z,494.00
2023-04-28T01:41:24.792Z,493.00
2023-04-28T01:43:44.755Z,494.00
2023-04-28T01:44:41.516Z,488.00
2023-04-28T01:45:34.866Z,490.00
2023-04-28T01:46:30.182Z,487.00
2023-04-28T01:47:25.166Z,490.00
2023-04-28T01:48:20.239Z,489.00
2023-04-28T01:49:15.395Z,486.00
2023-04-28T01:50:10.491Z,490.00
2023-04-28T01:51:05.641Z,495.00
2023-04-28T01:52:00.644Z,494.00
2023-04-28T01:52:55.752Z,495.00
2023-04-28T01:53:50.976Z,494.00
2023-04-28T01:54:46.096Z,495.00
2023-04-28T01:55:41.205Z,496.00
2023-04-28T01:56:36.539Z,501.00
2023-04-28T01:57:31.352Z,495.00
2023-04-28T01:58:26.442Z,501.00
2023-04-28T01:59:21.566Z,502.00
2023-04-28T02:00:16.686Z,503.00
2023-04-28T02:01:12.022Z,503.00
2023-04-28T02:02:06.904Z,508.00
2023-04-28T02:03:02.022Z,502.00
2023-04-28T02:03:57.409Z,504.00
2023-04-28T02:04:52.522Z,503.00
2023-04-28T02:05:47.432Z,499.00
2023-04-28T02:06:42.666Z,504.00
2023-04-28T02:07:37.669Z,505.00
2023-04-28T02:08:32.751Z,505.00
2023-04-28T02:09:27.928Z,502.00
2023-04-28T02:10:23.050Z,496.00
2023-04-28T02:11:18.399Z,494.00
2023-04-28T02:12:13.379Z,495.00
2023-04-28T02:13:08.423Z,497.00
2023-04-28T02:14:03.744Z,494.00
2023-04-28T02:14:58.801Z,493.00
2023-04-28T02:15:53.958Z,494.00
2023-04-28T02:16:49.298Z,495.00
2023-04-28T02:17:44.348Z,491.00
2023-04-28T02:18:39.475Z,491.00
2023-04-28T02:19:34.642Z,497.00
2023-04-28T02:20:31.906Z,495.00
2023-04-28T02:21:25.123Z,494.00
2023-04-28T02:22:20.006Z,498.00
2023-04-28T02:23:15.090Z,497.00
2023-04-28T02:24:10.322Z,496.00
2023-04-28T02:25:05.426Z,503.00
2023-04-28T02:26:00.538Z,502.00
2023-04-28T02:26:55.831Z,506.00
2023-04-28T02:27:50.968Z,498.00
2023-04-28T02:28:46.133Z,501.00
2023-04-28T02:29:41.132Z,508.00
2023-04-28T02:30:36.203Z,502.00
2023-04-28T02:31:31.735Z,506.00
2023-04-28T02:32:26.592Z,506.00
2023-04-28T02:33:21.843Z,506.00
2023-04-28T02:34:17.252Z,502.00
2023-04-28T02:35:12.136Z,498.00
2023-04-28T02:36:07.393Z,499.00
2023-04-28T02:37:02.473Z,501.00
2023-04-28T02:37:57.570Z,499.00
2023-04-28T02:38:52.676Z,502.00
2023-04-28T02:39:47.780Z,500.00
2023-04-28T02:40:43.029Z,502.00
2023-04-28T02:41:38.140Z,499.00
2023-04-28T02:42:33.396Z,495.00
2023-04-28T02:43:28.484Z,501.00
2023-04-28T02:44:23.759Z,500.00
2023-04-28T02:45:18.752Z,499.00
2023-04-28T02:46:13.901Z,504.00
2023-04-28T02:47:08.892Z,500.00
2023-04-28T02:48:04.119Z,504.00
2023-04-28T02:48:59.179Z,498.00
2023-04-28T02:49:54.310Z,507.00
2023-04-28T02:50:49.389Z,507.00
2023-04-28T02:51:44.685Z,510.00
2023-04-28T02:52:39.531Z,503.00
2023-04-28T02:53:34.635Z,502.00
2023-04-28T02:54:29.897Z,507.00
2023-04-28T02:55:24.930Z,504.00
2023-04-28T02:56:20.331Z,505.00
2023-04-28T02:57:15.172Z,498.00
2023-04-28T02:58:10.294Z,501.00
2023-04-28T02:59:05.424Z,505.00
2023-04-28T03:00:00.544Z,499.00
2023-04-28T03:00:55.687Z,500.00
2023-04-28T03:01:50.908Z,503.00
2023-04-28T03:02:46.088Z,504.00
2023-04-28T03:03:41.274Z,506.00
2023-04-28T03:04:36.523Z,505.00
2023-04-28T03:05:31.359Z,498.00
2023-04-28T03:06:26.779Z,498.00
2023-04-28T03:07:21.619Z,492.00
2023-04-28T03:08:16.943Z,503.00
2023-04-28T03:09:11.875Z,503.00
2023-04-28T03:10:07.037Z,501.00
2023-04-28T03:11:02.345Z,502.00
2023-04-28T03:11:57.292Z,503.00
2023-04-28T03:12:52.437Z,501.00
2023-04-28T03:13:47.687Z,506.00
2023-04-28T03:14:42.891Z,506.00
2023-04-28T03:15:38.191Z,511.00
2023-04-28T03:16:33.191Z,504.00
2023-04-28T03:17:28.338Z,507.00
2023-04-28T03:18:23.425Z,512.00
2023-04-28T03:19:18.582Z,503.00
2023-04-28T03:20:13.714Z,509.00
2023-04-28T03:21:08.843Z,502.00
2023-04-28T03:22:03.938Z,493.00
2023-04-28T03:22:59.203Z,499.00
2023-04-28T03:23:54.308Z,497.00
2023-04-28T03:24:49.537Z,497.00
2023-04-28T03:25:44.525Z,501.00
2023-04-28T03:26:39.841Z,494.00
2023-04-28T03:27:34.705Z,498.00
2023-04-28T03:28:29.867Z,492.00
2023-04-28T03:29:24.991Z,504.00
2023-04-28T03:30:20.331Z,499.00
2023-04-28T03:31:15.157Z,501.00
2023-04-28T03:32:10.568Z,497.00
2023-04-28T03:33:05.385Z,506.00
2023-04-28T03:34:00.534Z,502.00
2023-04-28T03:34:55.634Z,501.00
2023-04-28T03:35:50.721Z,501.00
2023-04-28T03:36:45.690Z,495.00
2023-04-28T03:37:40.864Z,493.00
2023-04-28T03:38:35.968Z,490.00
2023-04-28T03:39:31.109Z,499.00
2023-04-28T03:40:26.377Z,494.00
2023-04-28T03:41:21.494Z,505.00
2023-04-28T03:42:16.594Z,495.00
2023-04-28T03:43:11.808Z,497.00
2023-04-28T03:44:06.912Z,496.00
2023-04-28T03:45:02.198Z,505.00
2023-04-28T03:45:57.297Z,499.00
2023-04-28T03:46:52.284Z,500.00
2023-04-28T03:47:47.459Z,501.00
2023-04-28T03:48:42.535Z,508.00
2023-04-28T03:49:37.629Z,502.00
2023-04-28T03:50:33.032Z,499.00
2023-04-28T03:51:27.904Z,502.00
2023-04-28T03:52:23.030Z,500.00
2023-04-28T03:53:18.148Z,496.00
2023-04-28T03:54:13.633Z,499.00
2023-04-28T03:55:08.921Z,500.00
2023-04-28T03:56:03.832Z,497.00
2023-04-28T03:56:58.947Z,499.00
2023-04-28T03:57:54.107Z,503.00
2023-04-28T03:58:49.233Z,506.00
2023-04-28T03:59:44.600Z,514.00
2023-04-28T04:00:39.512Z,510.00
2023-04-28T04:01:34.689Z,513.00
2023-04-28T04:02:29.948Z,520.00
2023-04-28T04:03:25.129Z,513.00
2023-04-28T04:04:20.742Z,514.00
2023-04-28T04:05:15.487Z,511.00
2023-04-28T04:06:10.411Z,512.00
2023-04-28T04:07:05.596Z,515.00
2023-04-28T04:08:00.767Z,514.00
2023-04-28T04:08:55.944Z,521.00
2023-04-28T04:09:51.271Z,520.00
2023-04-28T04:10:46.469Z,521.00
2023-04-28T04:11:41.569Z,525.00
2023-04-28T04:12:36.708Z,528.00
2023-04-28T04:13:31.886Z,516.00
2023-04-28T04:14:27.082Z,526.00
2023-04-28T04:15:22.541Z,530.00
2023-04-28T04:16:17.598Z,526.00
2023-04-28T04:17:12.584Z,527.00
2023-04-28T04:18:07.830Z,525.00
2023-04-28T04:19:02.831Z,529.00
2023-04-28T04:19:58.225Z,526.00
2023-04-28T04:20:53.133Z,523.00
2023-04-28T04:21:48.336Z,538.00
2023-04-28T04:22:43.482Z,530.00
2023-04-28T04:23:38.725Z,543.00
2023-04-28T04:24:34.134Z,539.00
2023-04-28T04:25:29.277Z,542.00
2023-04-28T04:26:24.458Z,534.00
2023-04-28T04:27:19.758Z,536.00
2023-04-28T04:28:14.949Z,538.00
2023-04-28T04:29:10.276Z,535.00
2023-04-28T04:30:05.759Z,531.00
2023-04-28T04:31:00.809Z,535.00
2023-04-28T04:31:56.056Z,540.00
2023-04-28T04:32:51.404Z,538.00
2023-04-28T04:33:46.610Z,532.00
2023-04-28T04:34:41.870Z,539.00
2023-04-28T04:35:37.219Z,541.00
2023-04-28T04:36:32.426Z,535.00
2023-04-28T04:37:27.609Z,537.00
2023-04-28T04:38:23.034Z,546.00
2023-04-28T04:39:18.277Z,549.00
2023-04-28T04:40:13.633Z,539.00
2023-04-28T04:41:08.835Z,547.00
2023-04-28T04:42:13.563Z,544.00
2023-04-28T04:43:00.416Z,549.00
2023-04-28T04:43:54.893Z,532.00
2023-04-28T04:44:49.942Z,516.00
2023-04-28T04:45:45.428Z,525.00
2023-04-28T04:46:40.512Z,531.00
2023-04-28T04:47:35.845Z,557.00
2023-04-28T04:48:31.036Z,556.00
2023-04-28T04:49:26.384Z,549.00
2023-04-28T04:50:21.546Z,532.00
2023-04-28T04:51:16.790Z,512.00
2023-04-28T04:52:11.912Z,496.00
2023-04-28T04:53:09.947Z,497.00
2023-04-28T04:54:03.450Z,489.00
2023-04-28T04:54:57.680Z,478.00
2023-04-28T04:55:53.087Z,481.00
2023-04-28T04:56:48.330Z,488.00
2023-04-28T04:57:43.528Z,479.00
2023-04-28T04:58:38.815Z,486.00
2023-04-28T04:59:34.844Z,483.00
2023-04-28T05:00:30.028Z,487.00
2023-04-28T05:01:25.389Z,483.00
2023-04-28T05:02:20.821Z,482.00
2023-04-28T05:03:16.074Z,477.00
2023-04-28T05:04:11.618Z,487.00
2023-04-28T05:05:19.720Z,486.00
2023-04-28T05:06:02.585Z,501.00
2023-04-28T05:06:56.817Z,485.00
2023-04-28T05:07:52.137Z,485.00
2023-04-28T05:08:47.359Z,497.00
2023-04-28T05:09:42.548Z,490.00
2023-04-28T05:10:37.906Z,487.00
2023-04-28T05:11:33.084Z,516.00
2023-04-28T05:12:28.533Z,497.00
2023-04-28T05:13:23.762Z,503.00
2023-04-28T05:14:19.227Z,515.00
2023-04-28T05:15:14.446Z,504.00
2023-04-28T05:16:09.875Z,504.00
2023-04-28T05:17:05.153Z,514.00
2023-04-28T05:18:00.508Z,508.00
2023-04-28T05:18:55.913Z,514.00
2023-04-28T05:19:51.084Z,506.00
2023-04-28T05:20:46.492Z,513.00
2023-04-28T05:21:41.848Z,516.00
2023-04-28T05:22:37.177Z,516.00
2023-04-28T05:23:32.614Z,527.00
2023-04-28T05:24:28.177Z,522.00
2023-04-28T05:25:23.228Z,517.00
2023-04-28T05:26:18.622Z,519.00
2023-04-28T05:27:14.034Z,516.00
2023-04-28T05:28:09.309Z,529.00
2023-04-28T05:29:04.738Z,521.00
2023-04-28T05:30:00.164Z,523.00
2023-04-28T05:30:55.973Z,529.00
2023-04-28T05:31:51.433Z,524.00
2023-04-28T05:32:46.609Z,520.00
2023-04-28T05:33:41.516Z,519.00
2023-04-28T05:34:36.671Z,524.00
2023-04-28T05:35:31.623Z,530.00
2023-04-28T05:36:26.710Z,519.00
2023-04-28T05:37:21.846Z,523.00
2023-04-28T05:38:16.808Z,515.00
2023-04-28T05:39:11.805Z,510.00
2023-04-28T05:40:07.088Z,515.00
2023-04-28T05:41:01.920Z,524.00
2023-04-28T05:41:57.940Z,509.00
2023-04-28T05:42:52.995Z,513.00
2023-04-28T05:43:48.155Z,513.00
2023-04-28T05:44:43.344Z,520.00
2023-04-28T05:45:38.254Z,520.00
2023-04-28T05:46:33.190Z,520.00
2023-04-28T05:47:28.314Z,511.00
2023-04-28T05:48:23.221Z,506.00
2023-04-28T05:49:18.312Z,498.00
2023-04-28T05:50:13.438Z,505.00
2023-04-28T05:51:08.548Z,512.00
2023-04-28T05:52:03.540Z,524.00
2023-04-28T05:52:58.571Z,525.00
2023-04-28T05:53:53.600Z,500.00
2023-04-28T05:54:48.804Z,505.00
2023-04-28T05:55:43.718Z,514.00
2023-04-28T05:56:42.327Z,517.00
2023-04-28T05:57:45.666Z,508.00
2023-04-28T05:58:33.550Z,491.00
2023-04-28T05:59:28.652Z,499.00
2023-04-28T06:00:24.170Z,504.00
2023-04-28T06:01:19.481Z,501.00
2023-04-28T06:02:15.940Z,491.00
2023-04-28T06:03:11.618Z,504.00
2023-04-28T06:04:07.765Z,482.00
2023-04-28T06:05:02.733Z,474.00
2023-04-28T06:05:58.078Z,472.00
2023-04-28T06:06:53.894Z,490.00
2023-04-28T06:07:50.238Z,485.00
2023-04-28T06:08:45.100Z,481.00
2023-04-28T06:09:40.523Z,492.00
2023-04-28T06:10:35.904Z,482.00
2023-04-28T06:11:31.711Z,490.00
2023-04-28T06:12:26.922Z,485.00
2023-04-28T06:13:22.279Z,479.00
2023-04-28T06:14:18.760Z,475.00
2023-04-28T06:15:13.901Z,475.00
2023-04-28T06:16:09.744Z,480.00
2023-04-28T06:17:05.161Z,494.00
2023-04-28T06:18:00.485Z,492.00
2023-04-28T06:18:56.348Z,491.00
2023-04-28T06:19:51.651Z,504.00
2023-04-28T06:20:47.373Z,502.00
2023-04-28T06:21:42.632Z,488.00
2023-04-28T06:22:38.144Z,480.00
2023-04-28T06:23:33.881Z,484.00
2023-04-28T06:24:29.445Z,481.00
2023-04-28T06:25:24.774Z,478.00
2023-04-28T06:26:21.331Z,475.00
2023-04-28T06:27:16.679Z,473.00
2023-04-28T06:28:12.487Z,468.00
2023-04-28T06:29:07.993Z,468.00
2023-04-28T06:30:03.269Z,466.00
2023-04-28T06:30:59.008Z,467.00
2023-04-28T06:31:54.477Z,465.00
2023-04-28T06:32:50.225Z,462.00
2023-04-28T06:33:45.715Z,456.00
2023-04-28T06:34:41.055Z,455.00
2023-04-28T06:35:36.838Z,456.00
2023-04-28T06:36:32.163Z,454.00
2023-04-28T06:37:27.698Z,449.00
2023-04-28T06:38:23.892Z,452.00
2023-04-28T06:39:19.528Z,471.00
2023-04-28T06:40:15.088Z,464.00
2023-04-28T06:41:10.427Z,468.00
2023-04-28T06:42:05.654Z,458.00
2023-04-28T06:43:01.553Z,461.00
2023-04-28T06:43:56.854Z,455.00
2023-04-28T06:44:52.783Z,469.00
2023-04-28T06:45:48.145Z,472.00
2023-04-28T06:46:43.481Z,469.00
2023-04-28T06:47:39.251Z,464.00
2023-04-28T06:48:34.757Z,462.00
2023-04-28T06:49:30.215Z,460.00
2023-04-28T06:50:26.563Z,458.00
2023-04-28T06:51:21.941Z,462.00
2023-04-28T06:52:17.748Z,468.00
2023-04-28T06:53:13.128Z,461.00
2023-04-28T06:54:08.720Z,462.00
2023-04-28T06:55:03.674Z,465.00
2023-04-28T06:55:58.929Z,467.00
2023-04-28T06:56:53.885Z,472.00
2023-04-28T06:57:48.916Z,464.00
2023-04-28T06:58:43.880Z,462.00
2023-04-28T06:59:39.021Z,460.00
2023-04-28T07:00:34.036Z,457.00
2023-04-28T07:01:29.136Z,452.00
2023-04-28T07:02:24.165Z,459.00
2023-04-28T07:03:19.244Z,454.00
2023-04-28T07:04:14.567Z,449.00
2023-04-28T07:05:09.468Z,453.00
2023-04-28T07:06:04.446Z,454.00
2023-04-28T07:06:59.645Z,449.00
2023-04-28T07:07:54.900Z,454.00
2023-04-28T07:08:50.385Z,457.00
2023-04-28T07:09:46.424Z,455.00
2023-04-28T07:10:41.671Z,451.00
2023-04-28T07:11:37.137Z,453.00
2023-04-28T07:12:32.550Z,450.00
2023-04-28T07:13:27.956Z,443.00
2023-04-28T07:14:22.951Z,452.00
2023-04-28T07:15:17.912Z,451.00
2023-04-28T07:16:13.069Z,452.00
2023-04-28T07:17:08.074Z,450.00
2023-04-28T07:18:03.216Z,452.00
2023-04-28T07:18:58.199Z,458.00
2023-04-28T07:19:53.316Z,462.00
2023-04-28T07:20:48.315Z,464.00
2023-04-28T07:21:43.447Z,455.00
2023-04-28T07:22:40.429Z,446.00
2023-04-28T07:23:35.687Z,449.00
2023-04-28T07:24:30.545Z,448.00
2023-04-28T07:25:25.682Z,455.00
2023-04-28T07:26:20.732Z,459.00
2023-04-28T07:27:15.830Z,456.00
2023-04-28T07:28:10.877Z,458.00
2023-04-28T07:29:05.864Z,456.00
2023-04-28T07:30:03.141Z,458.00
2023-04-28T07:30:57.266Z,477.00
2023-04-28T07:31:51.811Z,468.00
2023-04-28T07:32:47.590Z,478.00
2023-04-28T07:33:42.827Z,470.00
2023-04-28T07:34:38.331Z,466.00
2023-04-28T07:35:34.706Z,461.00
2023-04-28T07:36:30.147Z,459.00
2023-04-28T07:37:25.792Z,479.00
2023-04-28T07:38:21.331Z,473.00
2023-04-28T07:39:16.742Z,462.00
2023-04-28T07:40:12.766Z,474.00
2023-04-28T07:41:10.096Z,467.00
2023-04-28T07:42:04.147Z,462.00
2023-04-28T07:42:59.763Z,462.00
2023-04-28T07:43:55.081Z,460.00
2023-04-28T07:46:14.755Z,440.00
2023-04-28T07:47:10.006Z,452.00
2023-04-28T07:48:06.730Z,454.00
2023-04-28T07:49:00.898Z,450.00
2023-04-28T07:49:56.284Z,444.00
2023-04-28T07:50:51.873Z,443.00
2023-04-28T07:51:47.148Z,451.00
2023-04-28T07:52:42.828Z,449.00
2023-04-28T07:53:38.229Z,444.00
2023-04-28T07:54:35.116Z,447.00
2023-04-28T07:55:29.088Z,454.00
2023-04-28T07:56:24.675Z,454.00
2023-04-28T07:57:19.948Z,458.00
2023-04-28T07:58:16.383Z,465.00
2023-04-28T07:59:10.913Z,451.00
2023-04-28T08:00:06.299Z,444.00
2023-04-28T08:01:01.770Z,443.00
2023-04-28T08:01:57.291Z,448.00
2023-04-28T08:02:52.901Z,444.00
2023-04-28T08:03:48.463Z,444.00
2023-04-28T08:04:43.992Z,450.00
2023-04-28T08:05:39.095Z,451.00
2023-04-28T08:06:34.498Z,442.00
2023-04-28T08:07:29.927Z,445.00
2023-04-28T08:08:25.377Z,445.00
2023-04-28T08:09:20.904Z,445.00
2023-04-28T08:10:16.102Z,446.00
2023-04-28T08:11:11.638Z,441.00
2023-04-28T08:12:07.122Z,440.00
2023-04-28T08:13:02.791Z,436.00
2023-04-28T08:13:58.025Z,438.00
2023-04-28T08:14:53.479Z,435.00
2023-04-28T08:15:48.844Z,437.00
2023-04-28T08:16:44.440Z,434.00
2023-04-28T08:17:39.888Z,432.00
2023-04-28T08:18:35.204Z,435.00
2023-04-28T08:19:30.537Z,429.00
2023-04-28T08:20:25.959Z,432.00
2023-04-28T08:21:21.297Z,425.00
2023-04-28T08:22:16.733Z,425.00
2023-04-28T08:23:12.372Z,424.00
2023-04-28T08:24:07.839Z,427.00
2023-04-28T08:25:03.147Z,423.00
2023-04-28T08:25:58.650Z,422.00
2023-04-28T08:26:54.111Z,421.00
2023-04-28T08:27:49.745Z,416.00
2023-04-28T08:28:45.145Z,441.00
2023-04-28T08:29:40.635Z,420.00
2023-04-28T08:30:36.161Z,429.00
2023-04-28T08:31:31.591Z,421.00
2023-04-28T08:32:27.009Z,422.00
2023-04-28T08:33:22.457Z,421.00
2023-04-28T08:34:18.109Z,425.00
2023-04-28T08:35:13.275Z,440.00
2023-04-28T08:36:08.695Z,422.00
2023-04-28T08:37:04.248Z,421.00
2023-04-28T08:37:59.800Z,419.00
2023-04-28T08:38:55.198Z,421.00
2023-04-28T08:39:50.574Z,432.00
2023-04-28T08:40:46.422Z,412.00
2023-04-28T08:41:41.647Z,412.00
2023-04-28T08:42:37.468Z,419.00
2023-04-28T08:43:32.691Z,415.00
2023-04-28T08:44:28.341Z,410.00
2023-04-28T08:45:23.555Z,421.00
2023-04-28T08:46:19.142Z,416.00
2023-04-28T08:47:14.525Z,415.00
2023-04-28T08:48:10.093Z,415.00
2023-04-28T08:49:05.372Z,450.00
2023-04-28T08:50:00.921Z,440.00
2023-04-28T08:50:56.429Z,427.00
2023-04-28T08:51:52.036Z,419.00
2023-04-28T08:52:47.238Z,423.00
2023-04-28T08:54:08.831Z,423.00
2023-04-28T08:54:39.052Z,421.00
2023-04-28T08:55:33.494Z,415.00
2023-04-28T08:56:28.833Z,419.00
2023-04-28T08:57:24.292Z,421.00
2023-04-28T08:58:19.644Z,419.00
2023-04-28T08:59:15.351Z,414.00
2023-04-28T09:00:10.765Z,414.00
2023-04-28T09:01:06.288Z,422.00
2023-04-28T09:02:01.833Z,422.00
2023-04-28T09:02:57.362Z,414.00
2023-04-28T09:03:52.770Z,414.00
2023-04-28T09:04:48.536Z,418.00
2023-04-28T09:05:43.635Z,424.00
2023-04-28T09:06:39.089Z,418.00
2023-04-28T09:07:34.735Z,436.00
2023-04-28T09:08:29.912Z,422.00
2023-04-28T09:09:25.357Z,427.00
2023-04-28T09:10:20.701Z,409.00
2023-04-28T09:11:16.090Z,418.00
2023-04-28T09:12:13.140Z,422.00
2023-04-28T09:13:08.392Z,431.00
2023-04-28T09:14:03.933Z,415.00
2023-04-28T09:14:59.271Z,415.00
2023-04-28T09:15:54.698Z,410.00
2023-04-28T09:16:49.704Z,415.00
2023-04-28T09:17:44.772Z,416.00
2023-04-28T09:18:39.719Z,414.00
2023-04-28T09:19:34.883Z,418.00
2023-04-28T09:20:29.877Z,418.00
2023-04-28T09:21:24.966Z,422.00
2023-04-28T09:23:15.089Z,416.00
2023-04-28T09:24:10.116Z,421.00
2023-04-28T09:25:05.157Z,413.00
2023-04-28T09:26:01.520Z,427.00
2023-04-28T09:26:57.032Z,437.00
2023-04-28T09:27:52.718Z,437.00
2023-04-28T09:28:48.166Z,448.00
2023-04-28T09:29:43.363Z,452.00
2023-04-28T09:30:38.810Z,439.00
2023-04-28T09:31:34.232Z,449.00
2023-04-28T09:32:29.920Z,461.00
2023-04-28T09:33:25.131Z,444.00
2023-04-28T09:34:20.672Z,447.00
2023-04-28T09:35:15.996Z,443.00
2023-04-28T09:36:11.472Z,441.00
2023-04-28T09:37:07.005Z,443.00
2023-04-28T09:38:02.642Z,448.00
2023-04-28T09:38:58.070Z,448.00
2023-04-28T09:39:53.226Z,444.00
2023-04-28T09:40:48.183Z,441.00
2023-04-28T09:41:43.202Z,444.00
2023-04-28T09:42:38.381Z,449.00
2023-04-28T09:43:33.268Z,449.00
2023-04-28T09:44:28.309Z,447.00
2023-04-28T09:45:23.345Z,457.00
2023-04-28T09:46:18.387Z,467.00
2023-04-28T09:47:13.407Z,448.00
2023-04-28T09:48:08.525Z,444.00
2023-04-28T09:49:05.893Z,465.00
2023-04-28T09:50:00.897Z,453.00
2023-04-28T09:50:56.032Z,453.00
2023-04-28T09:51:51.071Z,447.00
2023-04-28T09:52:47.053Z,455.00
2023-04-28T09:53:42.471Z,451.00
2023-04-28T09:54:37.753Z,448.00
2023-04-28T09:55:33.268Z,442.00
2023-04-28T09:56:28.869Z,448.00
2023-04-28T09:57:24.274Z,457.00
2023-04-28T09:58:19.603Z,444.00
2023-04-28T09:59:14.968Z,445.00
2023-04-28T10:00:10.599Z,448.00
2023-04-28T10:01:06.021Z,445.00
2023-04-28T10:02:12.792Z,444.00
2023-04-28T10:02:58.302Z,451.00
2023-04-28T10:03:52.505Z,437.00
2023-04-28T10:04:48.062Z,449.00
2023-04-28T10:05:43.076Z,447.00
2023-04-28T10:06:38.074Z,445.00
2023-04-28T10:07:33.227Z,448.00
2023-04-28T10:08:28.289Z,446.00
2023-04-28T10:09:24.866Z,467.00
2023-04-28T10:10:18.306Z,453.00
2023-04-28T10:11:13.338Z,441.00
2023-04-28T10:12:10.715Z,447.00
2023-04-28T10:13:05.874Z,461.00
2023-04-28T10:14:00.801Z,499.00
2023-04-28T10:14:55.906Z,454.00
2023-04-28T10:15:51.068Z,453.00
2023-04-28T10:16:46.233Z,451.00
2023-04-28T10:17:41.149Z,452.00
2023-04-28T10:18:36.157Z,448.00
2023-04-28T10:19:32.138Z,446.00
2023-04-28T10:20:27.576Z,457.00
2023-04-28T10:21:23.265Z,452.00
2023-04-28T10:22:18.715Z,452.00
2023-04-28T10:23:14.127Z,448.00
2023-04-28T10:24:09.519Z,451.00
2023-04-28T10:25:05.027Z,457.00
2023-04-28T10:26:00.701Z,448.00
2023-04-28T10:26:56.134Z,452.00
2023-04-28T10:27:51.459Z,446.00
2023-04-28T10:28:46.515Z,450.00
2023-04-28T10:29:41.546Z,450.00
2023-04-28T10:30:36.708Z,453.00
2023-04-28T10:31:31.807Z,444.00
2023-04-28T10:32:26.819Z,445.00
2023-04-28T10:33:21.992Z,450.00
2023-04-28T10:34:17.038Z,449.00
2023-04-28T10:35:14.077Z,454.00
2023-04-28T10:36:09.128Z,455.00
2023-04-28T10:37:04.156Z,444.00
2023-04-28T10:37:59.235Z,443.00
2023-04-28T10:38:54.328Z,446.00
2023-04-28T10:39:49.256Z,444.00
2023-04-28T10:40:44.363Z,452.00
2023-04-28T10:41:39.408Z,445.00
2023-04-28T10:42:34.500Z,446.00
2023-04-28T10:43:29.633Z,443.00
2023-04-28T10:44:24.519Z,445.00
2023-04-28T10:45:19.565Z,457.00
2023-04-28T10:46:15.099Z,448.00
2023-04-28T10:47:10.477Z,468.00
2023-04-28T10:48:06.103Z,468.00
2023-04-28T10:49:01.562Z,470.00
2023-04-28T10:49:57.056Z,478.00
2023-04-28T10:50:52.105Z,463.00
2023-04-28T10:51:47.154Z,463.00
2023-04-28T10:52:42.449Z,467.00
2023-04-28T10:53:37.342Z,465.00
2023-04-28T10:54:32.315Z,463.00
2023-04-28T10:55:27.361Z,462.00
2023-04-28T10:56:22.377Z,466.00
2023-04-28T10:57:17.496Z,464.00
2023-04-28T10:58:12.526Z,473.00
2023-04-28T10:59:07.555Z,469.00
2023-04-28T11:00:02.557Z,470.00
2023-04-28T11:00:57.738Z,470.00
2023-04-28T11:01:53.370Z,469.00
2023-04-28T11:02:48.839Z,464.00
2023-04-28T11:03:44.259Z,479.00
2023-04-28T11:04:40.067Z,468.00
2023-04-28T11:05:35.001Z,466.00
2023-04-28T11:06:30.026Z,462.00
2023-04-28T11:07:25.022Z,466.00
2023-04-28T11:08:20.285Z,475.00
2023-04-28T11:09:21.030Z,478.00
2023-04-28T11:10:16.559Z,468.00
2023-04-28T11:11:11.794Z,472.00
2023-04-28T11:12:07.775Z,461.00
2023-04-28T11:13:03.348Z,465.00
2023-04-28T11:13:58.604Z,472.00
2023-04-28T11:14:55.106Z,470.00
2023-04-28T11:15:50.711Z,471.00
2023-04-28T11:16:46.494Z,466.00
2023-04-28T11:17:41.957Z,469.00
2023-04-28T11:18:37.179Z,462.00
2023-04-28T11:19:33.450Z,467.00
2023-04-28T11:20:28.816Z,465.00
2023-04-28T11:21:24.467Z,464.00
2023-04-28T11:22:19.878Z,463.00
2023-04-28T11:23:15.329Z,465.00
2023-04-28T11:24:11.356Z,464.00
2023-04-28T11:25:06.858Z,469.00
2023-04-28T11:26:02.289Z,466.00
2023-04-28T11:26:58.650Z,470.00
2023-04-28T11:27:54.184Z,467.00
2023-04-28T11:28:49.881Z,466.00
2023-04-28T11:29:45.378Z,469.00
2023-04-28T11:30:40.888Z,473.00
2023-04-28T11:31:36.629Z,463.00
2023-04-28T11:32:32.136Z,468.00
2023-04-28T11:33:27.946Z,478.00